Time;durP1;ratioP1;P1;durP2;ratioP2;P2;SDS_P1;SDS_P2;PMS_P1;PMS_P2;Temp;Humidity;BMP_temperature;BMP_pressure;BME280_temperature;BME280_humidity;BME280_pressure;Samples;Min_cycle;Max_cycle;Signal;HPM_P1;HPM_P2
2021/12/29 00:00:06;;;;;;;77.47;12.75;;;;;;;;;;6219042;23;20073;-61
2021/12/29 00:02:32;;;;;;;70.88;11.63;;;;;;;;;;6219785;23;20038;-61
2021/12/29 00:04:58;;;;;;;85.57;12.20;;;;;;;;;;6219566;23;20074;-61
2021/12/29 00:07:25;;;;;;;103.70;12.20;;;;;;;;;;6219592;23;20009;-61
2021/12/29 00:09:51;;;;;;;86.28;11.18;;;;;;;;;;6195367;23;20016;-61
2021/12/29 00:12:24;;;;;;;85.20;9.77;;;;;;;;;;6221265;23;20022;-60
2021/12/29 00:14:51;;;;;;;59.30;9.45;;;;;;;;;;6194426;23;20099;-61
2021/12/29 00:17:17;;;;;;;96.65;10.93;;;;;;;;;;6194405;23;20019;-62
2021/12/29 00:19:43;;;;;;;103.82;10.82;;;;;;;;;;6219696;23;20016;-60
2021/12/29 00:22:09;;;;;;;73.05;9.50;;;;;;;;;;6219875;23;20444;-60
2021/12/29 00:24:35;;;;;;;97.95;9.73;;;;;;;;;;6221189;23;20066;-61
2021/12/29 00:27:04;;;;;;;65.45;9.95;;;;;;;;;;6219405;23;20058;-61
2021/12/29 00:29:30;;;;;;;95.30;10.55;;;;;;;;;;6194689;23;20016;-61
2021/12/29 00:31:56;;;;;;;70.28;11.02;;;;;;;;;;6195081;23;20015;-61
2021/12/29 00:34:22;;;;;;;56.03;10.30;;;;;;;;;;6219368;23;20048;-61
2021/12/29 00:36:48;;;;;;;93.15;10.43;;;;;;;;;;6219231;23;20091;-61
2021/12/29 00:39:14;;;;;;;90.40;11.75;;;;;;;;;;6219600;23;20019;-61
2021/12/29 00:41:40;;;;;;;72.57;11.82;;;;;;;;;;6194577;23;20023;-61
2021/12/29 00:44:08;;;;;;;70.88;11.63;;;;;;;;;;6220155;23;20016;-60
2021/12/29 00:46:34;;;;;;;69.90;10.60;;;;;;;;;;6220087;23;20325;-60
2021/12/29 00:49:00;;;;;;;76.07;10.90;;;;;;;;;;6194399;23;20023;-60
2021/12/29 00:51:26;;;;;;;77.10;11.57;;;;;;;;;;6218801;23;20012;-60
2021/12/29 00:53:52;;;;;;;60.95;9.23;;;;;;;;;;6194455;23;20022;-61
2021/12/29 00:56:18;;;;;;;57.47;8.13;;;;;;;;;;6221028;23;20317;-60
2021/12/29 00:58:44;;;;;;;52.28;8.95;;;;;;;;;;6194791;23;20015;-60
2021/12/29 01:01:10;;;;;;;54.65;8.88;;;;;;;;;;6194589;23;20051;-60
2021/12/29 01:03:38;;;;;;;49.65;9.55;;;;;;;;;;6230241;23;20023;-60
2021/12/29 01:06:04;;;;;;;65.25;8.77;;;;;;;;;;6244096;22;20378;-60
2021/12/29 01:08:30;;;;;;;53.55;8.30;;;;;;;;;;6218916;23;20023;-60
2021/12/29 01:10:57;;;;;;;44.60;6.90;;;;;;;;;;6245260;23;20043;-60
2021/12/29 01:13:30;;;;;;;48.45;7.75;;;;;;;;;;6245895;23;20012;-60
2021/12/29 01:16:08;;;;;;;43.65;8.07;;;;;;;;;;6246344;23;20012;-60
2021/12/29 01:18:35;;;;;;;52.17;7.70;;;;;;;;;;6245175;23;20417;-60
2021/12/29 01:21:02;;;;;;;40.78;7.55;;;;;;;;;;6245185;23;20364;-60
2021/12/29 01:23:28;;;;;;;40.10;7.78;;;;;;;;;;6246754;23;20012;-60
2021/12/29 01:25:54;;;;;;;38.05;8.05;;;;;;;;;;6219583;23;20020;-60
2021/12/29 01:28:20;;;;;;;46.13;8.63;;;;;;;;;;6244980;23;20016;-61
2021/12/29 01:30:46;;;;;;;35.58;8.00;;;;;;;;;;6246035;23;20018;-60
2021/12/29 01:33:12;;;;;;;38.90;9.15;;;;;;;;;;6244127;23;20433;-61
2021/12/29 01:35:39;;;;;;;65.90;12.30;;;;;;;;;;6220039;23;20023;-61
2021/12/29 01:38:06;;;;;;;66.03;12.63;;;;;;;;;;6245910;23;20012;-61
2021/12/29 01:40:32;;;;;;;55.00;11.80;;;;;;;;;;6244658;23;20101;-61
2021/12/29 01:42:58;;;;;;;55.50;12.52;;;;;;;;;;6244567;23;20485;-60
2021/12/29 01:45:25;;;;;;;48.55;12.32;;;;;;;;;;6245948;23;20050;-60
2021/12/29 01:47:51;;;;;;;54.17;12.60;;;;;;;;;;6220409;23;20338;-61
2021/12/29 01:50:18;;;;;;;56.63;14.25;;;;;;;;;;6244668;23;20055;-61
2021/12/29 01:52:50;;;;;;;50.40;12.60;;;;;;;;;;6245199;23;20016;-61
2021/12/29 01:55:17;;;;;;;60.90;14.70;;;;;;;;;;6244415;23;20012;-60
2021/12/29 01:57:44;;;;;;;65.40;14.55;;;;;;;;;;6244290;23;20107;-61
2021/12/29 02:00:12;;;;;;;59.10;14.90;;;;;;;;;;6219204;23;20070;-61
2021/12/29 02:02:39;;;;;;;56.08;13.15;;;;;;;;;;6244265;23;20012;-61
2021/12/29 02:05:05;;;;;;;60.15;13.88;;;;;;;;;;6218715;23;20456;-61
2021/12/29 02:07:31;;;;;;;51.67;14.27;;;;;;;;;;6218436;23;20012;-61
2021/12/29 02:09:57;;;;;;;51.65;15.38;;;;;;;;;;6246280;23;20071;-61
2021/12/29 02:12:24;;;;;;;50.05;15.02;;;;;;;;;;6194183;23;20008;-61
2021/12/29 02:14:50;;;;;;;53.85;15.32;;;;;;;;;;6220522;23;20012;-61
2021/12/29 02:17:16;;;;;;;47.58;14.77;;;;;;;;;;6196572;23;20012;-60
2021/12/29 02:19:46;;;;;;;58.17;17.05;;;;;;;;;;6247596;23;20051;-60
2021/12/29 02:27:43;;;;;;;51.53;16.33;;;;;;;;;;6221687;23;20066;-61
2021/12/29 02:30:10;;;;;;;47.58;16.58;;;;;;;;;;6221028;23;20012;-61
2021/12/29 02:32:36;;;;;;;43.25;16.70;;;;;;;;;;6221576;23;20074;-61
2021/12/29 02:35:02;;;;;;;41.60;15.52;;;;;;;;;;6221183;23;20016;-61
2021/12/29 02:37:28;;;;;;;52.13;15.75;;;;;;;;;;6221437;23;20020;-61
2021/12/29 02:39:54;;;;;;;41.13;14.55;;;;;;;;;;6195680;23;20056;-61
2021/12/29 02:42:22;;;;;;;37.90;13.52;;;;;;;;;;6221185;23;20027;-61
2021/12/29 02:44:49;;;;;;;39.95;14.75;;;;;;;;;;6195068;23;20016;-61
2021/12/29 02:47:15;;;;;;;35.33;13.10;;;;;;;;;;6247121;23;20018;-61
2021/12/29 02:49:41;;;;;;;48.25;15.25;;;;;;;;;;6195232;23;20016;-61
2021/12/29 02:52:08;;;;;;;34.90;11.75;;;;;;;;;;6220759;23;20017;-61
2021/12/29 02:54:35;;;;;;;38.90;12.23;;;;;;;;;;6195796;23;20414;-61
2021/12/29 02:57:01;;;;;;;41.58;13.05;;;;;;;;;;6220353;23;20008;-61
2021/12/29 02:59:27;;;;;;;45.13;13.60;;;;;;;;;;6220591;23;20004;-61
2021/12/29 03:01:53;;;;;;;41.22;13.00;;;;;;;;;;6220673;23;20066;-61
2021/12/29 03:04:19;;;;;;;41.17;13.30;;;;;;;;;;6239354;23;20468;-61
2021/12/29 03:06:45;;;;;;;39.22;13.13;;;;;;;;;;6245837;23;20518;-61
2021/12/29 03:09:12;;;;;;;44.78;13.98;;;;;;;;;;6245157;23;20091;-61
2021/12/29 03:11:40;;;;;;;45.22;14.88;;;;;;;;;;6245954;23;20079;-61
2021/12/29 03:14:06;;;;;;;41.25;13.25;;;;;;;;;;6221414;23;20294;-61
2021/12/29 03:16:33;;;;;;;35.08;13.25;;;;;;;;;;6245501;23;20012;-61
2021/12/29 03:19:02;;;;;;;45.95;13.35;;;;;;;;;;6220185;23;20047;-61
2021/12/29 03:21:28;;;;;;;38.35;14.45;;;;;;;;;;6247263;23;20019;-61
2021/12/29 03:23:54;;;;;;;49.78;14.52;;;;;;;;;;6219861;23;20325;-61
2021/12/29 03:26:20;;;;;;;47.28;14.73;;;;;;;;;;6220143;23;20019;-61
2021/12/29 03:28:46;;;;;;;43.72;14.00;;;;;;;;;;6246079;23;20291;-60
2021/12/29 03:31:14;;;;;;;41.17;13.70;;;;;;;;;;6245249;23;20129;-60
2021/12/29 03:33:41;;;;;;;44.33;14.63;;;;;;;;;;6245718;23;20055;-61
2021/12/29 03:36:07;;;;;;;44.85;15.85;;;;;;;;;;6245482;23;20031;-61
2021/12/29 03:38:36;;;;;;;43.00;14.25;;;;;;;;;;6220053;23;20016;-61
2021/12/29 03:41:03;;;;;;;48.85;15.60;;;;;;;;;;6246532;23;20038;-60
2021/12/29 03:43:32;;;;;;;47.53;15.55;;;;;;;;;;6221220;23;20016;-60
2021/12/29 03:45:58;;;;;;;45.10;15.55;;;;;;;;;;6245923;23;20012;-60
2021/12/29 03:48:26;;;;;;;45.55;16.60;;;;;;;;;;6245123;23;20011;-61
2021/12/29 03:50:52;;;;;;;55.22;17.65;;;;;;;;;;6246414;23;20062;-60
2021/12/29 03:53:18;;;;;;;48.78;17.33;;;;;;;;;;6220604;23;20378;-60
2021/12/29 03:55:45;;;;;;;41.15;14.82;;;;;;;;;;6245386;23;20016;-60
2021/12/29 03:58:11;;;;;;;53.05;19.73;;;;;;;;;;6219792;23;20062;-60
2021/12/29 04:00:37;;;;;;;54.92;19.67;;;;;;;;;;6245427;23;20325;-60
2021/12/29 04:03:04;;;;;;;50.00;17.58;;;;;;;;;;6219569;23;20433;-61
2021/12/29 04:05:30;;;;;;;52.95;18.92;;;;;;;;;;6245022;23;20043;-60
2021/12/29 04:07:57;;;;;;;47.88;16.35;;;;;;;;;;6219759;23;20106;-60
2021/12/29 04:10:23;;;;;;;44.83;17.35;;;;;;;;;;6245736;23;20012;-60
2021/12/29 04:12:50;;;;;;;51.50;19.88;;;;;;;;;;6220386;23;20016;-61
2021/12/29 04:15:17;;;;;;;59.85;19.45;;;;;;;;;;6220315;23;20485;-60
2021/12/29 04:17:44;;;;;;;57.95;23.08;;;;;;;;;;6245197;23;20023;-60
2021/12/29 04:22:57;;;;;;;55.17;19.85;;;;;;;;;;6245592;23;20456;-60
2021/12/29 04:25:24;;;;;;;58.58;20.67;;;;;;;;;;6219457;23;20012;-60
2021/12/29 04:27:51;;;;;;;46.63;16.20;;;;;;;;;;6219794;23;20055;-60
2021/12/29 04:30:18;;;;;;;49.75;20.40;;;;;;;;;;6219847;23;20019;-60
2021/12/29 04:32:44;;;;;;;56.58;20.40;;;;;;;;;;6245014;23;20047;-60
2021/12/29 04:35:10;;;;;;;61.53;20.63;;;;;;;;;;6220076;23;20019;-60
2021/12/29 04:37:36;;;;;;;57.67;20.92;;;;;;;;;;6245504;23;20433;-60
2021/12/29 04:40:03;;;;;;;49.88;20.95;;;;;;;;;;6244692;23;20016;-60
2021/12/29 04:42:29;;;;;;;48.85;17.63;;;;;;;;;;6245416;23;20051;-60
2021/12/29 04:44:55;;;;;;;44.58;15.25;;;;;;;;;;6245008;23;20016;-60
2021/12/29 04:47:27;;;;;;;56.47;17.88;;;;;;;;;;6244595;23;20018;-61
2021/12/29 04:49:54;;;;;;;62.92;19.88;;;;;;;;;;6246455;23;20066;-60
2021/12/29 04:52:20;;;;;;;46.00;17.70;;;;;;;;;;6244861;23;20020;-60
2021/12/29 04:54:46;;;;;;;57.15;18.73;;;;;;;;;;6245299;23;20287;-60
2021/12/29 04:57:12;;;;;;;55.80;19.67;;;;;;;;;;6245085;23;20020;-60
2021/12/29 04:59:38;;;;;;;55.58;18.05;;;;;;;;;;6244932;23;20091;-60
2021/12/29 05:02:04;;;;;;;45.45;18.33;;;;;;;;;;6246296;23;20023;-60
2021/12/29 05:04:33;;;;;;;57.53;18.95;;;;;;;;;;6244675;23;20372;-60
2021/12/29 05:09:44;;;;;;;59.40;20.67;;;;;;;;;;6245851;23;20016;-60
2021/12/29 05:12:10;;;;;;;49.45;18.25;;;;;;;;;;6245134;23;20046;-60
2021/12/29 05:14:37;;;;;;;51.15;18.80;;;;;;;;;;6219903;23;20440;-60
2021/12/29 05:17:03;;;;;;;49.92;16.30;;;;;;;;;;6246174;23;20016;-60
2021/12/29 05:19:30;;;;;;;47.70;16.05;;;;;;;;;;6244063;23;20303;-60
2021/12/29 05:21:56;;;;;;;47.13;17.83;;;;;;;;;;6245174;23;20481;-60
2021/12/29 05:24:22;;;;;;;43.58;16.38;;;;;;;;;;6244866;23;20321;-60
2021/12/29 05:26:48;;;;;;;43.10;16.05;;;;;;;;;;6247702;23;20349;-60
2021/12/29 05:29:14;;;;;;;42.60;14.45;;;;;;;;;;6219426;23;20012;-60
2021/12/29 05:31:40;;;;;;;46.78;14.75;;;;;;;;;;6244631;23;20503;-60
2021/12/29 05:34:06;;;;;;;42.85;16.80;;;;;;;;;;6244757;23;20070;-60
2021/12/29 05:36:32;;;;;;;56.15;18.02;;;;;;;;;;6244741;23;20012;-60
2021/12/29 05:38:58;;;;;;;56.03;19.05;;;;;;;;;;6219744;23;20012;-60
2021/12/29 05:41:24;;;;;;;54.05;19.13;;;;;;;;;;6246055;23;20495;-59
2021/12/29 05:43:50;;;;;;;64.13;18.85;;;;;;;;;;6245055;23;20329;-61
2021/12/29 05:46:17;;;;;;;55.50;16.90;;;;;;;;;;6244664;23;20453;-60
2021/12/29 05:48:43;;;;;;;51.95;15.85;;;;;;;;;;6245783;23;20022;-60
2021/12/29 05:51:12;;;;;;;52.10;15.60;;;;;;;;;;6221491;23;20090;-60
2021/12/29 05:53:38;;;;;;;52.10;15.02;;;;;;;;;;6246729;23;20012;-60
2021/12/29 05:56:04;;;;;;;29.60;9.52;;;;;;;;;;6221268;23;20457;-60
2021/12/29 05:58:30;;;;;;;48.90;15.52;;;;;;;;;;6246766;23;20016;-60
2021/12/29 06:00:56;;;;;;;55.20;15.82;;;;;;;;;;6247183;23;20078;-60
2021/12/29 06:03:22;;;;;;;50.95;12.98;;;;;;;;;;6246206;23;20426;-60
2021/12/29 06:05:48;;;;;;;55.70;14.45;;;;;;;;;;6246754;23;20083;-59
2021/12/29 06:08:14;;;;;;;47.83;12.70;;;;;;;;;;6245663;23;20386;-60
2021/12/29 06:10:41;;;;;;;48.67;13.57;;;;;;;;;;6220445;23;20016;-59
2021/12/29 06:13:07;;;;;;;42.63;12.05;;;;;;;;;;6221588;23;20023;-59
2021/12/29 06:15:33;;;;;;;50.22;13.43;;;;;;;;;;6221215;23;20016;-60
2021/12/29 06:17:59;;;;;;;50.38;13.00;;;;;;;;;;6246494;23;20020;-60
2021/12/29 06:20:25;;;;;;;51.17;13.25;;;;;;;;;;6246378;23;20018;-60
2021/12/29 06:22:51;;;;;;;48.10;11.65;;;;;;;;;;6245670;23;20019;-60
2021/12/29 06:25:18;;;;;;;45.30;12.35;;;;;;;;;;6221481;23;20023;-59
2021/12/29 06:27:44;;;;;;;51.15;15.02;;;;;;;;;;6245920;23;20020;-62
2021/12/29 06:30:11;;;;;;;48.75;12.82;;;;;;;;;;6245998;23;20055;-61
2021/12/29 06:32:38;;;;;;;50.47;12.75;;;;;;;;;;6221193;23;20012;-60
2021/12/29 06:35:05;;;;;;;58.83;14.63;;;;;;;;;;6246618;23;20448;-60
2021/12/29 06:37:31;;;;;;;51.10;13.23;;;;;;;;;;6247554;23;20012;-60
2021/12/29 06:39:57;;;;;;;48.97;13.63;;;;;;;;;;6245883;23;20012;-59
2021/12/29 06:42:23;;;;;;;44.22;11.95;;;;;;;;;;6245701;23;20027;-59
2021/12/29 06:44:49;;;;;;;56.25;11.20;;;;;;;;;;6247451;23;20091;-59
2021/12/29 06:47:16;;;;;;;61.72;13.63;;;;;;;;;;6220786;23;20015;-59
2021/12/29 06:49:42;;;;;;;60.17;13.43;;;;;;;;;;6221551;23;20016;-60
2021/12/29 06:52:08;;;;;;;49.50;12.13;;;;;;;;;;6246068;23;20329;-60
2021/12/29 06:54:35;;;;;;;53.38;14.00;;;;;;;;;;6245608;23;20364;-60
2021/12/29 06:57:01;;;;;;;59.05;12.75;;;;;;;;;;6246400;23;20008;-60
2021/12/29 06:59:27;;;;;;;39.30;10.20;;;;;;;;;;6246238;23;20452;-60
2021/12/29 07:01:54;;;;;;;32.83;9.55;;;;;;;;;;6220394;23;20422;-60
2021/12/29 07:04:20;;;;;;;31.42;8.63;;;;;;;;;;6245309;23;20012;-61
2021/12/29 07:06:46;;;;;;;35.88;8.65;;;;;;;;;;6219872;23;20051;-61
2021/12/29 07:09:12;;;;;;;23.25;8.15;;;;;;;;;;6245128;23;20012;-61
2021/12/29 07:11:39;;;;;;;27.58;8.60;;;;;;;;;;6220327;23;20306;-60
2021/12/29 07:14:07;;;;;;;27.15;8.75;;;;;;;;;;6246696;22;20016;-60
2021/12/29 07:16:33;;;;;;;24.08;7.93;;;;;;;;;;6245154;23;20321;-60
2021/12/29 07:18:59;;;;;;;24.50;7.50;;;;;;;;;;6245561;23;20016;-60
2021/12/29 07:21:25;;;;;;;28.60;8.25;;;;;;;;;;6244763;23;20017;-60
2021/12/29 07:23:53;;;;;;;26.92;7.80;;;;;;;;;;6220488;23;20026;-59
2021/12/29 07:26:19;;;;;;;34.38;9.05;;;;;;;;;;6247167;23;20016;-60
2021/12/29 07:28:45;;;;;;;30.00;8.52;;;;;;;;;;6219857;23;20106;-59
2021/12/29 07:31:11;;;;;;;26.52;8.30;;;;;;;;;;6220248;23;20389;-59
2021/12/29 07:33:38;;;;;;;32.88;10.05;;;;;;;;;;6221722;23;20094;-59
2021/12/29 07:36:04;;;;;;;28.70;8.18;;;;;;;;;;6244526;23;20425;-60
2021/12/29 07:38:30;;;;;;;23.75;8.50;;;;;;;;;;6220238;23;20091;-60
2021/12/29 07:40:56;;;;;;;32.15;11.13;;;;;;;;;;6244845;23;20038;-60
2021/12/29 07:43:22;;;;;;;35.25;9.55;;;;;;;;;;6245156;23;20012;-60
2021/12/29 07:45:50;;;;;;;34.33;9.88;;;;;;;;;;6219821;23;20397;-60
2021/12/29 07:48:18;;;;;;;36.95;10.10;;;;;;;;;;6244708;23;20019;-60
2021/12/29 07:50:44;;;;;;;39.70;9.98;;;;;;;;;;6244532;23;20019;-60
2021/12/29 07:53:10;;;;;;;63.83;11.48;;;;;;;;;;6244215;23;20012;-60
2021/12/29 07:55:36;;;;;;;49.72;11.38;;;;;;;;;;6244523;23;20014;-60
2021/12/29 07:58:03;;;;;;;54.47;11.00;;;;;;;;;;6244326;23;20047;-60
2021/12/29 08:00:29;;;;;;;49.97;11.07;;;;;;;;;;6219169;23;20019;-60
2021/12/29 08:02:55;;;;;;;46.72;10.32;;;;;;;;;;6218845;23;20321;-60
2021/12/29 08:05:22;;;;;;;42.28;10.15;;;;;;;;;;6218923;23;20050;-61
2021/12/29 08:07:49;;;;;;;29.60;8.60;;;;;;;;;;6245387;22;20438;-60
2021/12/29 08:10:15;;;;;;;34.03;8.23;;;;;;;;;;6243848;23;20020;-61
2021/12/29 08:12:41;;;;;;;31.27;10.65;;;;;;;;;;6243689;23;20091;-60
2021/12/29 08:15:07;;;;;;;26.23;8.90;;;;;;;;;;6244174;23;20329;-59
2021/12/29 08:17:33;;;;;;;38.38;10.23;;;;;;;;;;6244144;23;20019;-60
2021/12/29 08:20:00;;;;;;;40.70;10.50;;;;;;;;;;6243748;23;20019;-60
2021/12/29 08:22:27;;;;;;;46.78;11.50;;;;;;;;;;6244032;23;20440;-60
2021/12/29 08:24:53;;;;;;;53.22;14.68;;;;;;;;;;6243760;23;20012;-60
2021/12/29 08:27:19;;;;;;;46.25;14.05;;;;;;;;;;6244036;23;20048;-60
2021/12/29 08:29:45;;;;;;;49.28;14.18;;;;;;;;;;6244085;23;20027;-60
2021/12/29 08:32:11;;;;;;;35.10;11.98;;;;;;;;;;6243987;23;20020;-60
2021/12/29 08:34:37;;;;;;;45.60;15.13;;;;;;;;;;6218727;23;20047;-60
2021/12/29 08:37:03;;;;;;;52.08;14.95;;;;;;;;;;6244041;23;20108;-60
2021/12/29 08:39:29;;;;;;;43.28;13.45;;;;;;;;;;6243897;23;20326;-60
2021/12/29 08:41:55;;;;;;;35.38;12.55;;;;;;;;;;6243930;23;20016;-60
2021/12/29 08:44:21;;;;;;;34.30;12.20;;;;;;;;;;6245361;23;20020;-61
2021/12/29 08:46:48;;;;;;;37.75;12.73;;;;;;;;;;6243951;23;20034;-61
2021/12/29 08:49:14;;;;;;;39.60;11.43;;;;;;;;;;6243531;23;20459;-61
2021/12/29 08:51:40;;;;;;;41.83;11.90;;;;;;;;;;6243821;23;20429;-60
2021/12/29 08:54:06;;;;;;;31.92;10.98;;;;;;;;;;6218540;23;20027;-60
2021/12/29 08:56:32;;;;;;;32.28;9.20;;;;;;;;;;6243903;23;20012;-61
2021/12/29 08:58:58;;;;;;;29.30;9.32;;;;;;;;;;6243818;23;20417;-60
2021/12/29 09:01:25;;;;;;;28.30;9.32;;;;;;;;;;6243578;23;20031;-60
2021/12/29 09:03:51;;;;;;;31.90;9.02;;;;;;;;;;6243519;23;20375;-60
2021/12/29 09:06:18;;;;;;;26.33;9.80;;;;;;;;;;6243937;23;20433;-60
2021/12/29 09:08:45;;;;;;;29.80;8.65;;;;;;;;;;6243457;23;20015;-60
2021/12/29 09:11:11;;;;;;;27.58;8.65;;;;;;;;;;6243707;23;20062;-60
2021/12/29 09:13:38;;;;;;;23.38;7.80;;;;;;;;;;6245470;23;20430;-60
2021/12/29 09:16:05;;;;;;;19.80;7.03;;;;;;;;;;6243414;23;20023;-60
2021/12/29 09:18:32;;;;;;;23.30;7.32;;;;;;;;;;6218574;23;20337;-59
2021/12/29 09:21:05;;;;;;;18.73;7.35;;;;;;;;;;6218546;23;20015;-60
2021/12/29 09:23:31;;;;;;;17.20;6.40;;;;;;;;;;6219602;23;20024;-61
2021/12/29 09:25:58;;;;;;;24.23;6.72;;;;;;;;;;6245955;23;20020;-60
2021/12/29 09:28:24;;;;;;;20.45;5.90;;;;;;;;;;6245902;23;20016;-60
2021/12/29 09:30:50;;;;;;;22.48;6.88;;;;;;;;;;6245783;23;20437;-61
2021/12/29 09:33:19;;;;;;;25.42;7.13;;;;;;;;;;6220439;23;20468;-61
2021/12/29 09:35:47;;;;;;;29.52;7.55;;;;;;;;;;6245439;23;20051;-60
2021/12/29 09:38:14;;;;;;;29.77;6.70;;;;;;;;;;6245508;23;20019;-61
2021/12/29 09:40:40;;;;;;;24.35;6.55;;;;;;;;;;6245818;23;20008;-61
2021/12/29 09:43:07;;;;;;;17.02;5.15;;;;;;;;;;6245762;23;20438;-60
2021/12/29 09:45:33;;;;;;;20.52;5.28;;;;;;;;;;6220547;23;20333;-61
2021/12/29 09:47:59;;;;;;;19.90;5.70;;;;;;;;;;6245622;23;20012;-60
2021/12/29 09:50:26;;;;;;;20.65;5.55;;;;;;;;;;6220459;23;20016;-61
2021/12/29 09:52:52;;;;;;;24.00;5.68;;;;;;;;;;6245585;23;20083;-60
2021/12/29 09:55:20;;;;;;;18.42;5.43;;;;;;;;;;6245296;23;20017;-60
2021/12/29 09:57:48;;;;;;;21.33;6.20;;;;;;;;;;6245492;23;20012;-60
2021/12/29 10:00:34;;;;;;;17.95;5.57;;;8.10;99.90;;;;;;6220347;23;20012;-60
2021/12/29 10:03:02;;;;;;;21.40;6.38;;;;;;;;;;6219336;23;20094;-60
2021/12/29 10:05:29;;;;;;;22.10;6.18;;;;;;;;;;6245668;23;20083;-60
2021/12/29 10:08:05;;;;;;;22.48;5.10;;;;;;;;;;6219836;23;20080;-60
2021/12/29 10:10:32;;;;;;;25.25;6.18;;;;;;;;;;6245153;23;20016;-60
2021/12/29 10:12:59;;;;;;;27.35;6.60;;;;;;;;;;6245503;23;20444;-60
2021/12/29 10:15:35;;;;;;;20.58;6.20;;;;;;;;;;6220131;23;20430;-60
2021/12/29 10:18:06;;;;;;;22.90;5.93;;;;;;;;;;6245292;23;20016;-59
2021/12/29 10:20:32;;;;;;;25.27;6.40;;;;;;;;;;6244979;23;20016;-60
2021/12/29 10:22:59;;;;;;;26.45;6.75;;;;;;;;;;6219660;23;20016;-61
2021/12/29 10:25:25;;;;;;;32.40;7.25;;;;;;;;;;6245004;23;20066;-60
2021/12/29 10:27:52;;;;;;;26.80;6.03;;;;;;;;;;6245280;23;20039;-59
2021/12/29 10:30:23;;;;;;;30.02;6.30;;;;;;;;;;6219751;23;20027;-60
2021/12/29 10:32:50;;;;;;;19.17;6.30;;;;;;;;;;6245239;23;20441;-60
2021/12/29 10:35:21;;;;;;;32.25;7.28;;;;;;;;;;6244991;23;20016;-60
2021/12/29 10:37:47;;;;;;;35.85;7.05;;;;;;;;;;6219905;23;20012;-60
2021/12/29 10:40:23;;;;;;;27.95;6.63;;;;;;;;;;6245315;23;20632;-60
2021/12/29 10:42:53;;;;;;;22.48;7.05;;;;;;;;;;6245275;23;20371;-60
2021/12/29 10:45:27;;;;;;;28.13;6.53;;;;;;;;;;6245231;23;20016;-60
2021/12/29 10:47:53;;;;;;;29.02;6.72;;;;;;;;;;6245218;23;20440;-61
2021/12/29 10:50:19;;;;;;;33.83;7.15;;;;;;;;;;6244952;23;20024;-60
2021/12/29 10:52:47;;;;;;;28.85;7.80;;;;;;;;;;6219663;23;20020;-61
2021/12/29 10:55:16;;;;;;;33.88;7.20;;;;;;;;;;6245011;23;20016;-61
2021/12/29 10:57:42;;;;;;;20.63;7.32;;;;;;;;;;6219758;23;20066;-60
2021/12/29 11:00:12;;;;;;;34.42;5.80;;;;;;;;;;6244721;23;20082;-60
2021/12/29 11:02:38;;;;;;;33.47;6.28;;;;;;;;;;6219581;23;20070;-61
2021/12/29 11:05:06;;;;;;;18.35;5.63;;;;;;;;;;6194437;23;20028;-61
2021/12/29 11:07:33;;;;;;;22.33;5.97;;;;;;;;;;6219681;23;20020;-60
2021/12/29 11:10:08;;;;;;;23.33;5.32;;;;;;;;;;6219632;23;20008;-61
2021/12/29 11:12:43;;;;;;;22.98;5.10;;;;;;;;;;6219231;23;20471;-61
2021/12/29 11:15:20;;;;;;;22.08;4.70;;;;;;;;;;6194500;23;20012;-60
2021/12/29 11:17:46;;;;;;;18.75;5.20;;;;;;;;;;6219450;23;20039;-62
2021/12/29 11:20:17;;;;;;;16.30;4.32;;;;;;;;;;6219479;23;20048;-60
2021/12/29 11:22:43;;;;;;;17.33;5.30;;;;;;;;;;6219545;23;20016;-60
2021/12/29 11:25:09;;;;;;;21.00;5.50;;;;;;;;;;6219591;23;20472;-61
2021/12/29 11:27:35;;;;;;;18.85;4.68;;;;;;;;;;6219450;23;20020;-60
2021/12/29 11:30:04;;;;;;;21.33;5.50;;;;;;;;;;6194330;23;20012;-61
2021/12/29 11:32:32;;;;;;;17.00;5.25;;;;;;;;;;6193767;23;20390;-61
2021/12/29 11:34:59;;;;;;;23.08;5.10;;;;;;;;;;6219213;23;20119;-60
2021/12/29 11:37:26;;;;;;;20.70;5.45;;;;;;;;;;6218908;23;20019;-61
2021/12/29 11:39:52;;;;;;;17.15;5.70;;;;;;;;;;6219269;23;20016;-61
2021/12/29 11:42:18;;;;;;;26.60;6.15;;;;;;;;;;6194399;23;20008;-61
2021/12/29 11:44:44;;;;;;;18.35;4.32;;;;;;;;;;6219273;23;20012;-61
2021/12/29 11:47:12;;;;;;;21.52;4.43;;;;;;;;;;6193750;23;20020;-61
2021/12/29 11:49:38;;;;;;;16.08;4.75;;;;;;;;;;6194234;23;20066;-61
2021/12/29 11:52:14;;;;;;;13.05;4.95;;;;;;;;;;6194166;23;20418;-60
2021/12/29 11:54:46;;;;;;;14.80;5.20;;;;;;;;;;6218680;23;20016;-60
2021/12/29 11:57:13;;;;;;;11.48;5.32;;;;;;;;;;6194273;23;20042;-61
2021/12/29 11:59:39;;;;;;;17.73;5.50;;;;;;;;;;6218996;23;20019;-61
2021/12/29 12:02:05;;;;;;;18.50;5.57;;;;;;;;;;6219062;23;20016;-61
2021/12/29 12:04:31;;;;;;;19.70;5.75;;;;;;;;;;6214597;23;20016;-61
2021/12/29 12:07:02;;;;;;;24.73;5.88;;;;;;;;;;6218989;23;20048;-61
2021/12/29 12:09:28;;;;;;;15.52;5.38;;;;;;;;;;6244086;23;20087;-61
2021/12/29 12:12:00;;;;;;;24.85;5.38;;;;;;;;;;6244356;23;20012;-60
2021/12/29 12:14:31;;;;;;;19.52;6.80;;;;;;;;;;6218975;23;20012;-61
2021/12/29 12:16:58;;;;;;;17.27;6.15;;;;;;;;;;6244398;23;20012;-60
2021/12/29 12:19:26;;;;;;;18.35;6.32;;;;;;;;;;6218910;23;20110;-61
2021/12/29 12:22:21;;;;;;;20.63;5.45;;;;;;;;;;6218603;23;20012;-61
2021/12/29 12:24:50;;;;;;;19.38;6.60;;;;;;;;;;6212624;23;20047;-62
2021/12/29 12:27:25;;;;;;;20.77;6.15;;;;;;;;;;6243888;23;20018;-60
2021/12/29 12:30:00;;;;;;;14.35;5.32;;;;;;;;;;6244186;23;20307;-61
2021/12/29 12:32:26;;;;;;;16.23;6.00;;;;;;;;;;6218767;23;20065;-61
2021/12/29 12:35:05;;;;;;;19.77;6.25;;;;;;;;;;6244065;23;20315;-60
2021/12/29 12:37:35;;;;;;;21.05;6.43;;;;;;;;;;6218827;23;20038;-60
2021/12/29 12:40:21;;;;;;;16.05;6.30;;;;;;;;;;6243937;23;20157;-61
2021/12/29 12:42:58;;;;;;;23.83;7.70;;;;;;;;;;6218801;23;20035;-61
2021/12/29 12:45:24;;;;;;;39.55;10.20;;;;;;;;;;6244059;23;20323;-61
2021/12/29 12:48:01;;;;;;;39.22;13.50;;;;;;;;;;6244058;23;20453;-61
2021/12/29 12:50:28;;;;;;;34.22;11.77;;;;;;;;;;6244093;23;20047;-60
2021/12/29 12:52:55;;;;;;;31.98;10.65;;;;;;;;;;6243818;23;20027;-61
2021/12/29 12:55:22;;;;;;;23.10;9.13;;;;;;;;;;6243847;23;20416;-61
2021/12/29 12:57:50;;;;;;;26.08;9.25;;;;;;;;;;6245403;23;20448;-61
2021/12/29 13:00:21;;;;;;;31.17;9.50;;;;;;;;;;6243821;23;20008;-61
2021/12/29 13:02:49;;;;;;;;;;;8.30;99.90;;;;;;6243876;23;20360;-60
2021/12/29 13:05:20;;;;;;;29.67;8.70;;;;;;;;;;6245335;23;19923;-62
2021/12/29 13:07:52;;;;;;;25.02;7.82;;;;;;;;;;6218503;23;20302;-61
2021/12/29 13:10:24;;;;;;;32.28;8.00;;;;;;;;;;6218031;23;20030;-61
2021/12/29 13:12:57;;;;;;;31.45;9.38;;;;;;;;;;6218262;23;20419;-61
2021/12/29 13:15:23;;;;;;;18.52;8.68;;;;;;;;;;6218439;23;20361;-61
2021/12/29 13:17:49;;;;;;;30.13;7.95;;;;;;;;;;6218419;23;20015;-61
2021/12/29 13:20:15;;;;;;;28.85;10.05;;;;;;;;;;6218430;23;20125;-61
2021/12/29 13:22:42;;;;;;;26.98;9.48;;;;;;;;;;6192928;23;20016;-61
2021/12/29 13:25:31;;;;;;;29.00;10.07;;;;;;;;;;6218316;23;20008;-61
2021/12/29 13:28:05;;;;;;;34.60;11.38;;;;;;;;;;6192964;23;20114;-61
2021/12/29 13:30:41;;;;;;;25.58;11.45;;;;;;;;;;6193428;23;20020;-61
2021/12/29 13:33:07;;;;;;;28.38;11.38;;;;;;;;;;6245194;23;20309;-61
2021/12/29 13:35:37;;;;;;;30.58;11.95;;;;;;;;;;6245288;23;20290;-60
2021/12/29 13:38:05;;;;;;;31.52;11.63;;;;;;;;;;6193503;23;20298;-61
2021/12/29 13:40:33;;;;;;;25.33;12.85;;;;;;;;;;6218124;23;20351;-62
2021/12/29 13:42:59;;;;;;;28.67;12.57;;;;;;;;;;6192349;23;20095;-61
2021/12/29 13:45:27;;;;;;;33.53;12.70;;;;;;;;;;6218678;23;20329;-60
2021/12/29 13:47:56;;;;;;;21.58;11.27;;;;;;;;;;6218602;23;20074;-60
2021/12/29 13:50:22;;;;;;;21.30;11.98;;;;;;;;;;6218807;23;20012;-60
2021/12/29 13:52:58;;;;;;;25.08;12.40;;;;;;;;;;6219645;23;20012;-60
2021/12/29 13:55:26;;;;;;;21.70;12.02;;;;;;;;;;6193838;23;20024;-60
2021/12/29 13:57:57;;;;;;;27.35;13.05;;;;;;;;;;6218365;23;20022;-60
2021/12/29 14:00:23;;;;;;;;;;;8.40;99.90;;;;;;6219115;23;20016;-60
2021/12/29 14:02:49;;;;;;;24.45;12.95;;;;;;;;;;6219701;23;19943;-60
2021/12/29 14:05:15;;;;;;;22.05;10.98;;;;;;;;;;6195108;23;20061;-60
2021/12/29 14:07:41;;;;;;;24.15;11.75;;;;;;;;;;6219780;23;20012;-60
2021/12/29 14:10:08;;;;;;;26.17;13.05;;;;;;;;;;6219946;23;20057;-60
2021/12/29 14:12:36;;;;;;;26.15;13.93;;;;;;;;;;6221427;23;20073;-60
2021/12/29 14:15:06;;;;;;;25.23;13.02;;;;;;;;;;6220552;23;20020;-60
2021/12/29 14:17:37;;;;;;;27.73;12.40;;;;;;;;;;6196140;23;20428;-60
2021/12/29 14:20:05;;;;;;;24.35;13.13;;;;;;;;;;6222012;23;20023;-60
2021/12/29 14:22:32;;;;;;;31.45;15.02;;;;;;;;;;6220660;23;20016;-60
2021/12/29 14:25:05;;;;;;;33.78;14.77;;;;;;;;;;6221399;23;20042;-60
2021/12/29 14:27:34;;;;;;;36.17;15.23;;;;;;;;;;6247953;23;20016;-58
2021/12/29 14:30:00;;;;;;;31.98;14.40;;;;;;;;;;6221457;23;20433;-58
2021/12/29 14:32:26;;;;;;;27.80;14.32;;;;;;;;;;6195465;23;20105;-61